Time;durP1;ratioP1;P1;durP2;ratioP2;P2;SDS_P1;SDS_P2;PMS_P1;PMS_P2;Temp;Humidity;BMP_temperature;BMP_pressure;BME280_temperature;BME280_humidity;BME280_pressure;Samples;Min_cycle;Max_cycle;Signal;HPM_P1;HPM_P2
2022/06/21 00:01:05;;;;;;;;;;;12.00;99.90;;;;;;5112694;28;19924;-81
2022/06/21 00:03:32;;;;;;;;;;;12.00;99.90;;;;;;5111501;28;19924;-81
2022/06/21 00:06:06;;;;;;;;;;;11.90;99.90;;;;;;5109978;28;19930;-82
2022/06/21 00:08:36;;;;;;;;;;;11.90;99.90;;;;;;5110637;28;19927;-84
2022/06/21 00:11:04;;;;;;;;;;;11.90;99.90;;;;;;5116378;28;19934;-81
2022/06/21 00:13:32;;;;;;;;;;;11.90;99.90;;;;;;5111598;28;19928;-82
2022/06/21 00:16:00;;;;;;;;;;;11.90;99.90;;;;;;5102165;28;19928;-84
2022/06/21 00:18:28;;;;;;;;;;;11.90;99.90;;;;;;5097991;28;19981;-83
2022/06/21 00:20:55;;;;;;;;;;;11.80;99.90;;;;;;5100498;28;19924;-81
2022/06/21 00:23:23;;;;;;;;;;;11.80;99.90;;;;;;5102917;28;19928;-83
2022/06/21 00:25:52;;;;;;;;;;;12.90;99.90;;;;;;5110027;28;19924;-82
2022/06/21 00:28:19;;;;;;;;;;;11.70;99.90;;;;;;5100205;28;19928;-82
2022/06/21 00:30:47;;;;;;;;;;;11.60;99.90;;;;;;5108778;28;19935;-87
2022/06/21 00:33:14;;;;;;;;;;;11.60;99.90;;;;;;5107298;28;19952;-82
2022/06/21 00:35:42;;;;;;;;;;;11.60;99.90;;;;;;5102089;28;19928;-85
2022/06/21 00:38:10;;;;;;;;;;;11.60;99.90;;;;;;5098849;28;19928;-82
2022/06/21 00:40:37;;;;;;;;;;;11.50;99.90;;;;;;5095625;28;19935;-82
2022/06/21 00:43:05;;;;;;;;;;;;;;;;;;5102186;28;19924;-83
2022/06/21 00:45:34;;;;;;;;;;;11.50;99.90;;;;;;5100339;28;19934;-82
2022/06/21 00:48:09;;;;;;;;;;;11.50;99.90;;;;;;5103117;28;19925;-84
2022/06/21 00:50:38;;;;;;;;;;;11.50;99.90;;;;;;5102092;28;19931;-83
2022/06/21 00:53:07;;;;;;;;;;;11.50;99.90;;;;;;5101969;28;20034;-83
2022/06/21 00:55:38;;;;;;;;;;;11.50;99.90;;;;;;5098222;28;19932;-84
2022/06/21 00:58:06;;;;;;;;;;;11.40;99.90;;;;;;5099233;28;20319;-82
2022/06/21 01:00:40;;;;;;;;;;;11.40;99.90;;;;;;5093343;28;20026;-84
2022/06/21 01:03:08;;;;;;;;;;;11.40;99.90;;;;;;5083475;28;19931;-82
2022/06/21 01:05:38;;;;;;;;;;;11.40;99.90;;;;;;5128649;27;20350;-82
2022/06/21 01:08:05;;;;;;;;;;;11.40;99.90;;;;;;5094241;28;19974;-83
2022/06/21 01:10:32;;;;;;;;;;;11.40;99.90;;;;;;5092836;28;19931;-83
2022/06/21 01:13:01;;;;;;;;;;;11.40;99.90;;;;;;5091571;28;19931;-84
2022/06/21 01:15:29;;;;;;;;;;;11.50;99.90;;;;;;5091372;28;19931;-83
2022/06/21 01:18:07;;;;;;;;;;;11.50;99.90;;;;;;5092009;28;20372;-82
2022/06/21 01:20:35;;;;;;;;;;;11.60;99.90;;;;;;5093141;28;19924;-82
2022/06/21 01:23:04;;;;;;;;;;;11.60;99.90;;;;;;5090358;28;19924;-82
2022/06/21 01:25:39;;;;;;;;;;;11.60;99.90;;;;;;5088912;28;20020;-83
2022/06/21 01:28:09;;;;;;;;;;;11.60;99.90;;;;;;5090476;28;19930;-82
2022/06/21 01:30:38;;;;;;;;;;;11.50;99.90;;;;;;5098851;28;19959;-84
2022/06/21 01:33:05;;;;;;;;;;;11.50;99.90;;;;;;5127016;27;20399;-81
2022/06/21 01:35:35;;;;;;;;;;;11.40;99.90;;;;;;5092755;28;20038;-85
2022/06/21 01:38:04;;;;;;;;;;;11.40;99.90;;;;;;5092631;28;20514;-82
2022/06/21 01:40:35;;;;;;;;;;;11.30;99.90;;;;;;5091329;28;19928;-82
2022/06/21 01:43:04;;;;;;;;;;;11.30;99.90;;;;;;5092544;28;19923;-82
2022/06/21 01:45:35;;;;;;;;;;;11.30;99.90;;;;;;5090884;28;19932;-84
2022/06/21 01:48:04;;;;;;;;;;;10.00;99.90;;;;;;5084543;28;19967;-84
2022/06/21 01:50:33;;;;;;;;;;;11.20;99.90;;;;;;5090626;28;19928;-82
2022/06/21 01:52:59;;;;;;;;;;;11.20;99.90;;;;;;5091681;28;19931;-83
2022/06/21 01:55:33;;;;;;;;;;;11.10;99.90;;;;;;5088460;28;19934;-84
2022/06/21 01:58:01;;;;;;;;;;;11.10;99.90;;;;;;5090479;28;19928;-81
2022/06/21 02:00:31;;;;;;;;;;;11.10;99.90;;;;;;5091438;28;19931;-81
2022/06/21 02:03:02;;;;;;;;;;;11.10;99.90;;;;;;5125320;27;20336;-82
2022/06/21 02:05:31;;;;;;;;;;;11.00;99.90;;;;;;5091528;28;19928;-82
2022/06/21 02:08:00;;;;;;;;;;;11.00;99.90;;;;;;5094348;28;19947;-82
2022/06/21 02:10:29;;;;;;;;;;;10.80;99.90;;;;;;5093373;28;19945;-87
2022/06/21 02:12:57;;;;;;;;;;;10.80;99.90;;;;;;5092376;28;19959;-82
2022/06/21 02:15:31;;;;;;;;;;;10.80;99.90;;;;;;5091054;28;19924;-82
2022/06/21 02:18:01;;;;;;;;;;;10.70;99.90;;;;;;5091949;28;19939;-82
2022/06/21 02:20:30;;;;;;;;;;;10.80;99.90;;;;;;5090568;28;19935;-83
2022/06/21 02:22:56;;;;;;;;;;;10.80;99.90;;;;;;5089649;28;19928;-82
2022/06/21 02:25:26;;;;;;;;;;;10.80;99.90;;;;;;5089080;28;19928;-83
2022/06/21 02:27:55;;;;;;;;;;;10.70;99.90;;;;;;5088563;28;20005;-82
2022/06/21 02:30:25;;;;;;;;;;;10.70;99.90;;;;;;5089051;28;19939;-83
2022/06/21 02:32:53;;;;;;;;;;;10.60;99.90;;;;;;5089057;28;19924;-83
2022/06/21 02:35:23;;;;;;;;;;;10.60;99.90;;;;;;5090727;28;19932;-83
2022/06/21 02:37:53;;;;;;;;;;;10.60;99.90;;;;;;5088432;28;19932;-85
2022/06/21 02:40:20;;;;;;;;;;;10.50;99.90;;;;;;5124813;27;19931;-83
2022/06/21 02:42:48;;;;;;;;;;;10.50;99.90;;;;;;5092625;28;19924;-84
2022/06/21 02:45:22;;;;;;;;;;;10.50;99.90;;;;;;5091563;28;19947;-81
2022/06/21 02:47:49;;;;;;;;;;;10.50;99.90;;;;;;5089505;28;19924;-82
2022/06/21 02:50:26;;;;;;;;;;;10.40;99.90;;;;;;5091575;28;19985;-82
2022/06/21 02:52:55;;;;;;;;;;;10.40;99.90;;;;;;5091518;28;19937;-86
2022/06/21 02:55:27;;;;;;;;;;;10.40;99.90;;;;;;5096873;28;20000;-84
2022/06/21 02:57:57;;;;;;;;;;;10.40;99.90;;;;;;5089847;28;20390;-85
2022/06/21 03:00:24;;;;;;;;;;;10.30;99.90;;;;;;5089565;28;19954;-82
2022/06/21 03:02:52;;;;;;;;;;;10.30;99.90;;;;;;5093995;28;19924;-88
2022/06/21 03:05:20;;;;;;;;;;;10.30;99.90;;;;;;5100388;28;19932;-82
2022/06/21 03:07:53;;;;;;;;;;;10.30;99.90;;;;;;5097311;28;19924;-86
2022/06/21 03:10:23;;;;;;;;;;;10.30;99.90;;;;;;5100548;28;19935;-83
2022/06/21 03:12:50;;;;;;;;;;;10.30;99.90;;;;;;5098466;28;19924;-81
2022/06/21 03:15:17;;;;;;;;;;;10.40;99.90;;;;;;5091886;28;19928;-84
2022/06/21 03:17:47;;;;;;;;;;;10.40;99.90;;;;;;5093397;28;19928;-85
2022/06/21 03:20:15;;;;;;;;;;;10.50;99.90;;;;;;5097293;28;20377;-84
2022/06/21 03:22:42;;;;;;;;;;;10.60;99.90;;;;;;5091520;28;20011;-84
2022/06/21 03:25:17;;;;;;;;;;;10.70;99.90;;;;;;5123852;28;19936;-85
2022/06/21 03:27:50;;;;;;;;;;;10.70;99.90;;;;;;5090851;28;19931;-85
2022/06/21 03:30:19;;;;;;;;;;;10.70;99.90;;;;;;5091065;28;20422;-84
2022/06/21 03:32:46;;;;;;;;;;;10.60;99.90;;;;;;5089741;28;19924;-84
2022/06/21 03:35:14;;;;;;;;;;;10.70;99.90;;;;;;5090874;28;19924;-84
2022/06/21 03:37:42;;;;;;;;;;;10.60;99.90;;;;;;5087241;28;20034;-84
2022/06/21 03:43:01;;;;;;;;;;;10.60;99.90;;;;;;5090914;28;19928;-84
2022/06/21 03:45:33;;;;;;;;;;;10.60;99.90;;;;;;5089915;28;20427;-85
2022/06/21 03:48:02;;;;;;;;;;;10.60;99.90;;;;;;5071818;28;19928;-84
2022/06/21 03:50:32;;;;;;;;;;;10.60;99.90;;;;;;5092139;28;20494;-86
2022/06/21 03:53:09;;;;;;;;;;;10.60;99.90;;;;;;5123371;27;20021;-86
2022/06/21 03:55:42;;;;;;;;;;;10.60;99.90;;;;;;5128562;27;19927;-84
2022/06/21 03:58:11;;;;;;;;;;;10.60;99.90;;;;;;5094561;28;19940;-84
2022/06/21 04:00:43;;;;;;;;;;;10.60;99.90;;;;;;5128967;27;20010;-84
2022/06/21 04:03:12;;;;;;;;;;;10.60;99.90;;;;;;5093141;28;19924;-84
2022/06/21 04:05:44;;;;;;;;;;;10.60;99.90;;;;;;5128072;27;19928;-84
2022/06/21 04:08:13;;;;;;;;;;;10.70;99.90;;;;;;5128987;27;19932;-85
2022/06/21 04:10:43;;;;;;;;;;;10.70;99.90;;;;;;5091568;28;20442;-84
2022/06/21 04:13:13;;;;;;;;;;;10.80;99.90;;;;;;5091943;28;19928;-84
2022/06/21 04:15:44;;;;;;;;;;;10.80;99.90;;;;;;5094009;28;19928;-84
2022/06/21 04:18:14;;;;;;;;;;;11.50;99.90;;;;;;5095859;28;19943;-83
2022/06/21 04:20:43;;;;;;;;;;;10.90;99.90;;;;;;5094769;28;20455;-84
2022/06/21 04:23:11;;;;;;;;;;;11.00;99.90;;;;;;5093324;28;19935;-85
2022/06/21 04:25:41;;;;;;;;;;;11.00;99.90;;;;;;5092264;28;19928;-86
2022/06/21 04:28:11;;;;;;;;;;;11.10;99.90;;;;;;5092322;28;20336;-87
2022/06/21 04:30:44;;;;;;;;;;;11.20;99.90;;;;;;5091592;28;19974;-86
2022/06/21 04:33:13;;;;;;;;;;;11.20;99.90;;;;;;5126516;27;19928;-85
2022/06/21 04:35:44;;;;;;;;;;;11.20;99.90;;;;;;5126122;27;20014;-85
2022/06/21 04:38:13;;;;;;;;;;;11.30;99.90;;;;;;5125097;27;19935;-85
2022/06/21 04:40:41;;;;;;;;;;;11.30;99.90;;;;;;5093287;28;19924;-86
2022/06/21 04:43:14;;;;;;;;;;;11.50;99.90;;;;;;5096505;28;19935;-91
2022/06/21 04:45:42;;;;;;;;;;;;;;;;;;5103569;28;19938;-95
2022/06/21 04:48:14;;;;;;;;;;;14.30;99.90;;;;;;5142511;27;20003;-94
2022/06/21 04:50:44;;;;;;;;;;;11.70;99.90;;;;;;5112438;28;19991;-93
2022/06/21 04:53:15;;;;;;;;;;;11.80;99.90;;;;;;5106003;28;20125;-91
2022/06/21 04:55:46;;;;;;;;;;;11.90;99.90;;;;;;5101573;28;20445;-90
2022/06/21 04:58:15;;;;;;;;;;;11.90;99.90;;;;;;5104001;28;20023;-90
2022/06/21 05:00:42;;;;;;;;;;;12.10;99.90;;;;;;5138276;27;19924;-93
2022/06/21 05:03:25;;;;;;;;;;;12.40;99.90;;;;;;5106767;28;19924;-90
2022/06/21 05:05:53;;;;;;;;;;;12.40;99.90;;;;;;5109055;28;19963;-92
2022/06/21 05:08:21;;;;;;;;;;;12.60;99.90;;;;;;5112143;28;19931;-93
2022/06/21 05:10:50;;;;;;;;;;;12.80;99.90;;;;;;5110024;28;19938;-94
2022/06/21 05:13:21;;;;;;;;;;;12.90;99.90;;;;;;5110563;28;20044;-90
2022/06/21 05:15:49;;;;;;;;;;;13.00;99.90;;;;;;5138501;27;20451;-92
2022/06/21 05:18:19;;;;;;;;;;;13.10;99.90;;;;;;5105269;28;19967;-90
2022/06/21 05:20:51;;;;;;;;;;;13.30;99.90;;;;;;5104609;28;20039;-89
2022/06/21 05:23:19;;;;;;;;;;;13.50;99.90;;;;;;5110285;28;19919;-90
2022/06/21 05:25:49;;;;;;;;;;;13.50;99.90;;;;;;5105006;28;19951;-89
2022/06/21 05:28:30;;;;;;;;;;;13.70;99.90;;;;;;5138620;27;19935;-89
2022/06/21 05:31:03;;;;;;;;;;;14.20;99.90;;;;;;5138911;27;19924;-90
2022/06/21 05:33:33;;;;;;;;;;;15.00;99.90;;;;;;5117475;28;19912;-96
2022/06/21 05:36:01;;;;;;;;;;;16.70;99.90;;;;;;5117887;28;19991;-92
2022/06/21 05:38:31;;;;;;;;;;;18.00;99.90;;;;;;5118095;28;19920;-95
2022/06/21 05:40:59;;;;;;;;;;;18.80;99.90;;;;;;5117378;28;19912;-94
2022/06/21 05:43:29;;;;;;;;;;;22.00;99.90;;;;;;5117396;28;19912;-95
2022/06/21 05:46:00;;;;;;;;;;;23.60;99.90;;;;;;5117301;28;19912;-93
2022/06/21 05:48:35;;;;;;;;;;;24.10;99.90;;;;;;5115638;28;19915;-95
2022/06/21 05:51:04;;;;;;;;;;;25.30;99.90;;;;;;5112644;28;19924;-91
2022/06/21 05:53:42;;;;;;;;;;;27.70;99.90;;;;;;5107443;28;19924;-91
2022/06/21 05:56:12;;;;;;;;;;;28.00;99.90;;;;;;5098230;28;19932;-90
2022/06/21 05:58:46;;;;;;;;;;;29.00;99.90;;;;;;5099137;28;19928;-91
2022/06/21 06:01:15;;;;;;;;;;;30.00;99.90;;;;;;5101903;28;19931;-91
2022/06/21 06:03:52;;;;;;;;;;;30.60;99.90;;;;;;5098880;28;19924;-91
2022/06/21 06:06:20;;;;;;;;;;;30.60;99.90;;;;;;5109372;28;19924;-92
2022/06/21 06:08:50;;;;;;;;;;;31.20;95.70;;;;;;5105852;28;19924;-89
2022/06/21 06:11:57;;;;;;;;;;;31.50;94.80;;;;;;5100910;28;19924;-90
2022/06/21 06:14:17;;;;;;;;;;;31.90;92.20;;;;;;5097548;28;19962;-89
2022/06/21 06:16:46;;;;;;;;;;;32.00;90.20;;;;;;5098016;28;19935;-90
2022/06/21 06:19:20;;;;;;;;;;;32.20;89.40;;;;;;5098250;28;19932;-88
2022/06/21 06:21:51;;;;;;;;;;;31.10;85.20;;;;;;5101049;28;20319;-89
2022/06/21 06:24:20;;;;;;;;;;;32.70;88.30;;;;;;5100645;28;19924;-91
2022/06/21 06:26:50;;;;;;;;;;;33.00;83.30;;;;;;5102810;28;19924;-88
2022/06/21 06:29:20;;;;;;;;;;;33.60;83.50;;;;;;5096430;28;19924;-89
2022/06/21 06:31:51;;;;;;;;;;;34.50;77.30;;;;;;5094982;28;19924;-90
2022/06/21 06:34:22;;;;;;;;;;;34.50;77.60;;;;;;5096856;28;19931;-91
2022/06/21 06:36:57;;;;;;;;;;;34.30;75.60;;;;;;5095887;28;19925;-89
2022/06/21 06:39:28;;;;;;;;;;;34.40;74.80;;;;;;5097695;28;19920;-89
2022/06/21 06:42:01;;;;;;;;;;;34.80;74.20;;;;;;5078424;28;19924;-84
2022/06/21 06:44:36;;;;;;;;;;;34.80;75.10;;;;;;5107081;27;19924;-84
2022/06/21 06:47:04;;;;;;;;;;;35.40;71.00;;;;;;5081792;28;20391;-87
2022/06/21 06:49:37;;;;;;;;;;;35.30;69.30;;;;;;5088932;28;19931;-84
2022/06/21 06:52:11;;;;;;;;;;;35.30;68.30;;;;;;5088382;28;19989;-85
2022/06/21 06:54:40;;;;;;;;;;;35.30;70.30;;;;;;5090666;28;19928;-86
2022/06/21 06:57:13;;;;;;;;;;;35.40;66.70;;;;;;5088719;28;19924;-85
2022/06/21 06:59:41;;;;;;;;;;;35.60;66.70;;;;;;5090586;28;20465;-85
2022/06/21 07:02:15;;;;;;;;;;;36.20;67.60;;;;;;5121495;28;19928;-84
2022/06/21 07:04:45;;;;;;;;;;;37.00;65.90;;;;;;5088420;28;19935;-82
2022/06/21 07:07:16;;;;;;;;;;;37.10;61.80;;;;;;5070098;28;19935;-80
2022/06/21 07:09:43;;;;;;;;;;;;;;;;;;5075456;28;19935;-84
2022/06/21 07:12:15;;;;;;;;;;;36.70;61.50;;;;;;5109010;28;19992;-86
2022/06/21 07:14:43;;;;;;;;;;;36.30;60.90;;;;;;5072396;28;20019;-83
2022/06/21 07:17:15;;;;;;;;;;;36.30;59.00;;;;;;5107772;28;19929;-85
2022/06/21 07:19:42;;;;;;;;;;;36.10;58.60;;;;;;5077356;28;19935;-85
2022/06/21 07:22:12;;;;;;;;;;;35.80;58.40;;;;;;5075465;28;19929;-88
2022/06/21 07:24:41;;;;;;;;;;;35.70;58.00;;;;;;5099615;28;20295;-85
2022/06/21 07:27:13;;;;;;;;;;;35.60;57.00;;;;;;5100789;28;20310;-85
2022/06/21 07:29:42;;;;;;;;;;;35.30;57.30;;;;;;5100660;28;20090;-84
2022/06/21 07:32:10;;;;;;;;;;;34.70;57.70;;;;;;5100918;28;19931;-86
2022/06/21 07:34:41;;;;;;;;;;;34.70;57.30;;;;;;5101581;28;19924;-84
2022/06/21 07:37:12;;;;;;;;;;;34.80;57.60;;;;;;5099519;28;19935;-84
2022/06/21 07:39:46;;;;;;;;;;;35.00;56.70;;;;;;5100722;28;19998;-84
2022/06/21 07:42:15;;;;;;;;;;;35.20;57.30;;;;;;5134028;27;19947;-84
2022/06/21 07:44:45;;;;;;;;;;;35.30;57.80;;;;;;5098668;28;19940;-85
2022/06/21 07:47:16;;;;;;;;;;;35.10;56.60;;;;;;5097422;28;19928;-86
2022/06/21 07:49:47;;;;;;;;;;;34.90;56.10;;;;;;5097790;28;19946;-84
2022/06/21 07:52:21;;;;;;;;;;;34.10;55.20;;;;;;5101365;28;19924;-85
2022/06/21 07:54:52;;;;;;;;;;;33.40;57.20;;;;;;5110486;28;19939;-88
2022/06/21 07:57:23;;;;;;;;;;;33.20;56.20;;;;;;5106148;28;19967;-85
2022/06/21 07:59:51;;;;;;;;;;;32.70;57.50;;;;;;5092698;28;20073;-86
2022/06/21 08:07:57;;;;;;;;;;;33.70;58.10;;;;;;5126480;27;19931;-86
2022/06/21 08:10:28;;;;;;;;;;;33.70;55.30;;;;;;5072396;28;19928;-86
2022/06/21 08:12:55;;;;;;;;;;;33.40;56.80;;;;;;5071989;28;19935;-86
2022/06/21 08:15:23;;;;;;;;;;;33.00;55.30;;;;;;5094453;28;19931;-85
2022/06/21 08:17:54;;;;;;;;;;;32.50;57.50;;;;;;5095777;28;19928;-84
2022/06/21 08:20:24;;;;;;;;;;;32.30;57.90;;;;;;5091978;28;19928;-85
2022/06/21 08:22:53;;;;;;;;;;;32.60;58.10;;;;;;5117469;27;19932;-87
2022/06/21 08:25:26;;;;;;;;;;;33.30;57.50;;;;;;5132274;27;19924;-83
2022/06/21 08:27:56;;;;;;;;;;;33.50;57.30;;;;;;5101984;28;20042;-84
2022/06/21 08:30:28;;;;;;;;;;;33.90;55.40;;;;;;5138516;27;19932;-82
2022/06/21 08:32:57;;;;;;;;;;;33.90;55.50;;;;;;5104083;28;19932;-84
2022/06/21 08:35:26;;;;;;;;;;;33.80;55.10;;;;;;5089603;28;19958;-85
2022/06/21 08:37:55;;;;;;;;;;;33.70;55.50;;;;;;5089127;28;19924;-83
2022/06/21 08:40:40;;;;;;;;;;;33.40;54.60;;;;;;5122861;27;20022;-84
2022/06/21 08:43:34;;;;;;;;;;;33.20;55.50;;;;;;5083372;28;20608;-85
2022/06/21 08:46:14;;;;;;;;;;;33.10;55.00;;;;;;5089919;28;19928;-84
2022/06/21 08:49:08;;;;;;;;;;;33.20;56.60;;;;;;5090444;28;20372;-87
2022/06/21 08:51:50;;;;;;;;;;;33.20;55.50;;;;;;5088856;28;19947;-85
2022/06/21 08:54:25;;;;;;;;;;;32.80;56.40;;;;;;5117373;27;19935;-86
2022/06/21 08:56:56;;;;;;;;;;;32.80;55.70;;;;;;5120378;27;19934;-85
2022/06/21 08:59:28;;;;;;;;;;;32.80;56.30;;;;;;5090014;28;19949;-84
2022/06/21 09:02:00;;;;;;;;;;;32.60;56.00;;;;;;5094657;28;19924;-84
2022/06/21 09:04:32;;;;;;;;;;;32.60;56.50;;;;;;5094567;28;19928;-83
2022/06/21 09:07:23;;;;;;;;;;;32.20;56.60;;;;;;5096860;28;19930;-86
2022/06/21 09:09:56;;;;;;;;;;;31.90;56.60;;;;;;5080292;28;19928;-83
2022/06/21 09:12:29;;;;;;;;;;;31.30;56.10;;;;;;5095590;28;19925;-83
2022/06/21 09:15:09;;;;;;;;;;;30.20;56.60;;;;;;5078932;28;19924;-83
2022/06/21 09:17:40;;;;;;;;;;;30.20;57.00;;;;;;5094316;28;19981;-83
2022/06/21 09:20:16;;;;;;;;;;;29.80;58.00;;;;;;5085269;28;20535;-83
2022/06/21 09:22:53;;;;;;;;;;;29.30;57.80;;;;;;5093897;28;20392;-82
2022/06/21 09:25:28;;;;;;;;;;;28.70;58.10;;;;;;5094460;28;19932;-83
2022/06/21 09:28:00;;;;;;;;;;;28.50;59.70;;;;;;5095067;28;19935;-83
2022/06/21 09:30:33;;;;;;;;;;;28.50;60.20;;;;;;5092672;28;19924;-84
2022/06/21 09:33:02;;;;;;;;;;;28.60;59.70;;;;;;5094651;28;20174;-83
2022/06/21 09:35:36;;;;;;;;;;;28.70;60.10;;;;;;5097372;28;19937;-84
2022/06/21 09:38:17;;;;;;;;;;;28.70;60.30;;;;;;5078202;28;20005;-86
2022/06/21 09:40:47;;;;;;;;;;;28.70;60.00;;;;;;5075380;28;19928;-83
2022/06/21 09:43:21;;;;;;;;;;;28.40;60.10;;;;;;5073303;28;19963;-84
2022/06/21 09:45:56;;;;;;;;;;;28.40;60.70;;;;;;5074258;28;19925;-85
2022/06/21 09:48:26;;;;;;;;;;;28.30;60.30;;;;;;5074807;28;19940;-84
2022/06/21 09:50:59;;;;;;;;;;;27.80;60.40;;;;;;5074189;28;19925;-82
2022/06/21 09:53:31;;;;;;;;;;;26.70;60.20;;;;;;5073732;28;20392;-85
2022/06/21 09:56:04;;;;;;;;;;;26.70;60.90;;;;;;5073154;28;19924;-86
2022/06/21 09:58:35;;;;;;;;;;;26.70;61.00;;;;;;5072994;28;19924;-86
2022/06/21 10:01:09;;;;;;;;;;;26.90;61.10;;;;;;5072635;28;19974;-84
2022/06/21 10:03:39;;;;;;;;;;;27.00;60.30;;;;;;5072697;28;19935;-83
2022/06/21 10:06:09;;;;;;;;;;;27.00;60.80;;;;;;5073378;28;19931;-84
2022/06/21 10:08:44;;;;;;;;;;;26.60;60.30;;;;;;5090843;28;19924;-85
2022/06/21 10:11:13;;;;;;;;;;;26.20;61.30;;;;;;5095058;28;20022;-83
2022/06/21 10:13:48;;;;;;;;;;;25.70;61.10;;;;;;5095385;28;19924;-84
2022/06/21 10:16:25;;;;;;;;;;;25.70;62.60;;;;;;5097469;28;20521;-83
2022/06/21 10:19:06;;;;;;;;;;;25.60;64.00;;;;;;5096102;28;19924;-85
2022/06/21 10:21:45;;;;;;;;;;;25.40;64.20;;;;;;5096417;28;19928;-83
2022/06/21 10:24:24;;;;;;;;;;;25.30;64.80;;;;;;5130270;27;19931;-82
2022/06/21 10:27:03;;;;;;;;;;;25.30;65.40;;;;;;5096759;28;19931;-82
2022/06/21 10:29:48;;;;;;;;;;;25.30;65.60;;;;;;5099441;28;19938;-87
2022/06/21 10:32:27;;;;;;;;;;;25.10;65.40;;;;;;5102102;28;19988;-84
2022/06/21 10:35:23;;;;;;;;;;;25.10;65.10;;;;;;5129142;27;19947;-83
2022/06/21 10:37:57;;;;;;;;;;;25.10;65.60;;;;;;5103753;27;20027;-82
2022/06/21 10:40:33;;;;;;;;;;;25.40;65.40;;;;;;5096968;28;19924;-89
2022/06/21 10:43:09;;;;;;;;;;;25.60;64.80;;;;;;5100041;28;19930;-82
2022/06/21 10:45:49;;;;;;;;;;;25.80;64.40;;;;;;5094594;28;19924;-83
2022/06/21 10:48:32;;;;;;;;;;;25.90;64.00;;;;;;5094318;28;20029;-83
2022/06/21 10:51:05;;;;;;;;;;;26.00;64.00;;;;;;5094142;28;19959;-84
2022/06/21 10:53:41;;;;;;;;;;;26.00;64.30;;;;;;5093728;28;20307;-83
2022/06/21 10:59:17;;;;;;;;;;;26.30;63.90;;;;;;5128846;27;19930;-83
2022/06/21 11:01:44;;;;;;;;;;;26.30;63.80;;;;;;5099908;28;19963;-84
2022/06/21 11:04:20;;;;;;;;;;;26.20;63.40;;;;;;5106730;28;19946;-88
2022/06/21 11:06:51;;;;;;;;;;;26.20;63.70;;;;;;5109405;28;20281;-84
2022/06/21 11:09:21;;;;;;;;;;;26.30;64.00;;;;;;5105988;28;19948;-87
2022/06/21 11:11:52;;;;;;;;;;;26.50;63.80;;;;;;5144775;28;20030;-84
2022/06/21 11:14:24;;;;;;;;;;;26.90;63.80;;;;;;5101300;28;19963;-83
2022/06/21 11:16:58;;;;;;;;;;;27.00;64.40;;;;;;5099997;28;19927;-82
2022/06/21 11:19:32;;;;;;;;;;;27.10;64.10;;;;;;5127687;28;19934;-86
2022/06/21 11:22:12;;;;;;;;;;;27.10;62.30;;;;;;5093645;28;19924;-83
2022/06/21 11:24:44;;;;;;;;;;;26.90;62.50;;;;;;5094302;28;20076;-82
2022/06/21 11:27:14;;;;;;;;;;;26.80;62.70;;;;;;5094655;28;20074;-83
2022/06/21 11:29:45;;;;;;;;;;;26.80;63.00;;;;;;5091163;28;19924;-84
2022/06/21 11:32:18;;;;;;;;;;;26.90;63.40;;;;;;5092458;28;20143;-85
2022/06/21 11:34:50;;;;;;;;;;;26.80;62.30;;;;;;5080346;28;19923;-86
2022/06/21 11:37:23;;;;;;;;;;;26.70;63.50;;;;;;5090363;28;19963;-86
2022/06/21 11:39:55;;;;;;;;;;;26.70;63.40;;;;;;5093647;28;19938;-85
2022/06/21 11:42:24;;;;;;;;;;;26.50;63.60;;;;;;5092064;28;19985;-86
2022/06/21 11:45:02;;;;;;;;;;;26.30;63.90;;;;;;5090802;28;19924;-84
2022/06/21 11:47:35;;;;;;;;;;;26.30;64.50;;;;;;5092725;28;20348;-85
2022/06/21 11:50:12;;;;;;;;;;;26.30;64.60;;;;;;5091694;28;19924;-85
2022/06/21 11:53:00;;;;;;;;;;;26.20;63.30;;;;;;5091528;28;19931;-87
2022/06/21 11:55:31;;;;;;;;;;;26.00;64.50;;;;;;5091705;28;19932;-84
2022/06/21 11:57:59;;;;;;;;;;;25.70;64.90;;;;;;5092969;28;19928;-87
2022/06/21 12:00:31;;;;;;;;;;;25.40;65.20;;;;;;5093345;28;19932;-85
2022/06/21 12:03:00;;;;;;;;;;;25.00;65.80;;;;;;5127138;28;20387;-85
2022/06/21 12:05:33;;;;;;;;;;;24.90;66.60;;;;;;5111593;28;19927;-85
2022/06/21 12:08:02;;;;;;;;;;;25.00;67.20;;;;;;5115363;28;19924;-87
2022/06/21 12:10:34;;;;;;;;;;;25.20;66.50;;;;;;5117087;28;19924;-85
2022/06/21 12:13:05;;;;;;;;;;;25.30;66.40;;;;;;5152027;27;19912;-87
2022/06/21 12:15:36;;;;;;;;;;;25.70;65.90;;;;;;5118166;28;19943;-87
2022/06/21 12:18:05;;;;;;;;;;;26.20;66.60;;;;;;5151972;27;19924;-88
2022/06/21 12:20:38;;;;;;;;;;;26.60;66.10;;;;;;5116398;28;19950;-89
2022/06/21 12:23:08;;;;;;;;;;;26.90;65.40;;;;;;5150391;27;19916;-89
2022/06/21 12:25:35;;;;;;;;;;;27.10;64.60;;;;;;5113250;28;19935;-87
2022/06/21 12:28:02;;;;;;;;;;;27.40;63.50;;;;;;5097677;28;19924;-85
2022/06/21 12:30:31;;;;;;;;;;;27.60;62.80;;;;;;5128613;27;20360;-85
2022/06/21 12:33:00;;;;;;;;;;;27.90;62.80;;;;;;5127241;27;20469;-86
2022/06/21 12:35:36;;;;;;;;;;;27.80;61.50;;;;;;5086644;28;19924;-86
2022/06/21 12:38:05;;;;;;;;;;;27.50;61.50;;;;;;5085877;28;19924;-86
2022/06/21 12:40:35;;;;;;;;;;;27.40;62.70;;;;;;5094010;28;19928;-86
2022/06/21 12:43:06;;;;;;;;;;;27.70;63.20;;;;;;5099800;28;19924;-88
2022/06/21 12:45:41;;;;;;;;;;;27.90;61.70;;;;;;5093573;28;19928;-90
2022/06/21 12:48:22;;;;;;;;;;;28.00;61.80;;;;;;5109260;28;20409;-88
2022/06/21 12:50:54;;;;;;;;;;;28.00;61.70;;;;;;5101268;28;20069;-88
2022/06/21 12:53:47;;;;;;;;;;;27.90;61.10;;;;;;5128207;27;20433;-88
2022/06/21 12:56:24;;;;;;;;;;;28.00;60.90;;;;;;5081922;28;19938;-87
2022/06/21 12:59:02;;;;;;;;;;;28.10;61.10;;;;;;5092953;28;20018;-87
2022/06/21 13:01:33;;;;;;;;;;;28.10;60.20;;;;;;5094038;28;19931;-87
2022/06/21 13:04:05;;;;;;;;;;;27.80;60.80;;;;;;5128113;27;19928;-88
2022/06/21 13:06:45;;;;;;;;;;;27.80;61.00;;;;;;5096591;28;19969;-88
2022/06/21 13:09:21;;;;;;;;;;;28.00;61.20;;;;;;5097524;28;20019;-89
2022/06/21 13:11:56;;;;;;;;;;;28.30;60.80;;;;;;5093869;28;19943;-89
2022/06/21 13:14:45;;;;;;;;;;;28.40;60.90;;;;;;5092846;28;20044;-88
2022/06/21 13:17:20;;;;;;;;;;;28.90;59.80;;;;;;5096886;28;20004;-89
2022/06/21 13:19:52;;;;;;;;;;;28.90;60.10;;;;;;5093230;28;19928;-90
2022/06/21 13:22:24;;;;;;;;;;;28.90;60.30;;;;;;5092194;28;19928;-90
2022/06/21 13:24:58;;;;;;;;;;;29.30;60.00;;;;;;5116348;27;19931;-90
2022/06/21 13:27:35;;;;;;;;;;;29.20;59.10;;;;;;5120127;27;20015;-90
2022/06/21 13:30:15;;;;;;;;;;;29.10;59.40;;;;;;5081442;28;20161;-90
2022/06/21 13:32:49;;;;;;;;;;;28.90;59.50;;;;;;5088765;28;20062;-89
2022/06/21 13:35:20;;;;;;;;;;;28.90;59.50;;;;;;5123169;27;19928;-90
2022/06/21 13:37:49;;;;;;;;;;;28.90;59.30;;;;;;5083399;28;19934;-90
2022/06/21 13:40:19;;;;;;;;;;;28.90;59.40;;;;;;5092374;28;20023;-89
2022/06/21 13:42:51;;;;;;;;;;;28.80;59.10;;;;;;5095168;28;19943;-91
2022/06/21 13:45:34;;;;;;;;;;;28.50;59.80;;;;;;5112621;28;19931;-90
2022/06/21 13:48:13;;;;;;;;;;;28.80;59.70;;;;;;5117208;27;19924;-91
2022/06/21 13:50:45;;;;;;;;;;;28.80;59.90;;;;;;5095954;28;19929;-88
2022/06/21 13:53:16;;;;;;;;;;;28.40;59.10;;;;;;5094396;28;19928;-90
2022/06/21 13:55:46;;;;;;;;;;;27.80;59.60;;;;;;5084644;28;20030;-89
2022/06/21 13:58:22;;;;;;;;;;;27.40;60.90;;;;;;5093510;28;20220;-90
2022/06/21 14:00:52;;;;;;;;;;;27.30;61.60;;;;;;5091666;28;19935;-89
2022/06/21 14:03:25;;;;;;;;;;;27.80;61.10;;;;;;5091586;28;19970;-88
2022/06/21 14:05:59;;;;;;;;;;;28.10;61.10;;;;;;5090611;28;20057;-88
2022/06/21 14:08:31;;;;;;;;;;;28.10;61.60;;;;;;5090264;28;19924;-89
2022/06/21 14:10:59;;;;;;;;;;;28.40;61.00;;;;;;5092001;28;19924;-89
2022/06/21 14:13:30;;;;;;;;;;;30.20;61.50;;;;;;5087462;28;19924;-90
2022/06/21 14:16:03;;;;;;;;;;;29.20;60.90;;;;;;5089867;28;19924;-89
2022/06/21 14:18:35;;;;;;;;;;;29.20;60.30;;;;;;5090870;28;19932;-89
2022/06/21 14:21:07;;;;;;;;;;;29.10;59.90;;;;;;5092162;28;19928;-89
2022/06/21 14:23:43;;;;;;;;;;;28.30;59.10;;;;;;5092420;28;19924;-89
2022/06/21 14:26:23;;;;;;;;;;;28.20;59.60;;;;;;5091075;28;19927;-90
2022/06/21 14:29:03;;;;;;;;;;;27.70;60.40;;;;;;5118331;27;19924;-90
2022/06/21 14:31:42;;;;;;;;;;;25.80;60.30;;;;;;5071145;28;19925;-90
2022/06/21 14:34:18;;;;;;;;;;;27.00;61.70;;;;;;5105825;28;19924;-89
2022/06/21 14:36:47;;;;;;;;;;;27.10;62.50;;;;;;5092166;28;19924;-90
2022/06/21 14:39:19;;;;;;;;;;;29.30;63.30;;;;;;5091056;28;19924;-90
2022/06/21 14:41:55;;;;;;;;;;;27.50;62.70;;;;;;5091337;28;19924;-88
2022/06/21 14:44:25;;;;;;;;;;;28.50;62.10;;;;;;5077139;28;19927;-89
2022/06/21 14:47:14;;;;;;;;;;;28.50;62.10;;;;;;5119193;27;19990;-90
2022/06/21 14:49:44;;;;;;;;;;;28.80;61.40;;;;;;5125874;27;19924;-89
2022/06/21 14:52:23;;;;;;;;;;;29.00;60.90;;;;;;5091911;28;19924;-89
2022/06/21 14:54:57;;;;;;;;;;;28.50;60.00;;;;;;5093367;28;20773;-88
2022/06/21 14:57:29;;;;;;;;;;;28.50;60.50;;;;;;5092362;28;20003;-88